createdAt,value
2023-04-10T00:00:46.081Z,7.88
2023-04-10T00:03:14.228Z,7.07
2023-04-10T00:05:42.004Z,7.40
2023-04-10T00:08:12.743Z,9.25
2023-04-10T00:10:40.439Z,7.60
2023-04-10T00:13:08.083Z,8.38
2023-04-10T00:15:39.360Z,8.10
2023-04-10T00:18:11.245Z,9.77
2023-04-10T00:20:42.675Z,11.93
2023-04-10T00:23:10.534Z,8.80
2023-04-10T00:25:38.403Z,10.43
2023-04-10T00:28:10.061Z,8.77
2023-04-10T00:30:38.053Z,11.43
2023-04-10T00:33:05.909Z,10.48
2023-04-10T00:35:42.606Z,11.32
2023-04-10T00:38:10.450Z,11.20
2023-04-10T00:40:38.335Z,9.95
2023-04-10T00:43:05.857Z,10.35
2023-04-10T00:45:38.058Z,8.73
2023-04-10T00:48:06.456Z,10.35
2023-04-10T00:50:34.409Z,9.75
2023-04-10T00:53:03.101Z,9.68
2023-04-10T00:55:33.858Z,11.63
2023-04-10T00:58:01.927Z,9.20
2023-04-10T01:00:31.016Z,8.93
2023-04-10T01:03:01.545Z,9.13
2023-04-10T01:05:39.476Z,8.02
2023-04-10T01:08:22.993Z,11.30
2023-04-10T01:11:16.780Z,12.27
2023-04-10T01:13:53.433Z,9.63
2023-04-10T01:16:28.181Z,9.70
2023-04-10T01:19:15.027Z,11.10
2023-04-10T01:21:42.826Z,10.30
2023-04-10T01:24:32.494Z,9.55
2023-04-10T01:27:38.898Z,9.48
2023-04-10T01:30:09.113Z,10.85
2023-04-10T01:32:38.050Z,8.50
2023-04-10T01:35:08.877Z,9.88
2023-04-10T01:37:41.121Z,8.48
2023-04-10T01:40:10.966Z,8.55
2023-04-10T01:42:48.717Z,9.85
2023-04-10T01:45:21.146Z,10.15
2023-04-10T01:47:52.295Z,9.43
2023-04-10T01:50:25.629Z,10.52
2023-04-10T01:52:53.763Z,8.60
2023-04-10T01:55:27.561Z,9.23
2023-04-10T01:58:04.898Z,8.68
2023-04-10T02:00:39.723Z,8.82
2023-04-10T02:03:07.767Z,9.77
2023-04-10T02:06:02.796Z,9.48
2023-04-10T02:08:36.601Z,11.23
2023-04-10T02:11:32.138Z,9.63
2023-04-10T02:14:04.339Z,11.77
2023-04-10T02:16:33.469Z,10.73
2023-04-10T02:19:03.531Z,10.60
2023-04-10T02:21:33.882Z,10.45
2023-04-10T02:24:01.580Z,13.82
2023-04-10T02:26:29.257Z,10.65
2023-04-10T02:28:59.942Z,14.20
2023-04-10T02:31:28.685Z,12.63
2023-04-10T02:33:56.372Z,13.27
2023-04-10T02:36:26.706Z,10.73
2023-04-10T02:38:56.840Z,10.65
2023-04-10T02:41:25.868Z,11.60
2023-04-10T02:43:54.188Z,9.27
2023-04-10T02:46:27.336Z,9.32
2023-04-10T02:49:01.813Z,11.38
2023-04-10T02:51:29.818Z,13.50
2023-04-10T02:53:57.678Z,12.45
2023-04-10T02:56:30.101Z,10.20
2023-04-10T02:58:58.028Z,10.43
2023-04-10T03:01:26.749Z,12.70
2023-04-10T03:03:54.614Z,12.15
2023-04-10T03:06:29.116Z,12.48
2023-04-10T03:09:01.108Z,9.55
2023-04-10T03:11:28.723Z,11.07
2023-04-10T03:14:00.506Z,10.77
2023-04-10T03:16:28.694Z,11.23
2023-04-10T03:18:57.030Z,12.80
2023-04-10T03:21:24.514Z,13.30
2023-04-10T03:23:52.748Z,12.18
2023-04-10T03:26:21.265Z,12.65
2023-04-10T03:28:49.001Z,11.73
2023-04-10T03:31:16.728Z,11.68
2023-04-10T03:33:46.253Z,12.00
2023-04-10T03:36:17.501Z,9.60
2023-04-10T03:38:45.324Z,11.65
2023-04-10T03:41:16.029Z,10.45
2023-04-10T03:43:43.669Z,10.75
2023-04-10T03:46:20.509Z,13.98
2023-04-10T03:48:49.675Z,12.38
2023-04-10T03:51:20.540Z,9.65
2023-04-10T03:53:48.077Z,14.75
2023-04-10T03:56:17.430Z,12.45
2023-04-10T03:58:48.339Z,10.13
2023-04-10T04:01:16.367Z,11.48
2023-04-10T04:04:00.407Z,12.70
2023-04-10T04:06:47.224Z,15.23
2023-04-10T04:09:48.341Z,11.15
2023-04-10T04:12:24.983Z,11.68
2023-04-10T04:14:58.651Z,12.45
2023-04-10T04:17:39.880Z,11.75
2023-04-10T04:20:08.268Z,13.18
2023-04-10T04:22:54.744Z,15.30
2023-04-10T04:25:45.370Z,12.05
2023-04-10T04:28:16.249Z,11.07
2023-04-10T04:31:07.660Z,8.75
2023-04-10T04:34:01.598Z,10.80
2023-04-10T04:36:50.325Z,11.20
2023-04-10T04:39:33.393Z,11.57
2023-04-10T04:42:10.852Z,9.27
2023-04-10T04:44:50.630Z,11.75
2023-04-10T04:47:36.469Z,12.13
2023-04-10T04:50:17.372Z,11.38
2023-04-10T04:52:51.739Z,13.65
2023-04-10T04:55:30.994Z,11.23
2023-04-10T04:58:18.664Z,12.30
2023-04-10T05:01:05.508Z,11.93
2023-04-10T05:03:51.969Z,11.80
2023-04-10T05:06:38.060Z,13.25
2023-04-10T05:09:21.998Z,14.35
2023-04-10T05:12:14.140Z,8.88
2023-04-10T05:15:02.201Z,17.85
2023-04-10T05:17:51.129Z,10.05
2023-04-10T05:20:41.887Z,8.98
2023-04-10T05:23:41.549Z,13.20
2023-04-10T05:26:21.106Z,12.63
2023-04-10T05:28:56.454Z,9.98
2023-04-10T05:31:30.639Z,13.73
2023-04-10T05:34:09.514Z,10.30
2023-04-10T05:36:46.149Z,13.48
2023-04-10T05:39:24.172Z,13.52
2023-04-10T05:42:04.097Z,11.68
2023-04-10T05:44:45.651Z,10.05
2023-04-10T05:47:48.368Z,9.45
2023-04-10T05:50:48.647Z,9.52
2023-04-10T05:53:32.340Z,13.27
2023-04-10T05:56:06.524Z,9.85
2023-04-10T05:59:03.322Z,11.50
2023-04-10T06:01:49.835Z,8.35
2023-04-10T06:04:17.993Z,9.32
2023-04-10T06:06:46.463Z,11.52
2023-04-10T06:09:14.019Z,8.85
2023-04-10T06:11:41.627Z,12.57
2023-04-10T06:14:09.666Z,9.07
2023-04-10T06:16:43.267Z,15.55
2023-04-10T06:19:11.774Z,11.23
2023-04-10T06:21:39.549Z,11.30
2023-04-10T06:24:16.578Z,12.77
2023-04-10T06:26:48.377Z,13.35
2023-04-10T06:29:16.796Z,8.68
2023-04-10T06:31:44.724Z,6.70
2023-04-10T06:34:13.000Z,9.35
2023-04-10T06:36:50.099Z,7.50
2023-04-10T06:39:17.809Z,6.65
2023-04-10T06:41:45.242Z,7.60
2023-04-10T06:44:29.224Z,8.88
2023-04-10T06:46:56.733Z,7.95
2023-04-10T06:49:24.398Z,5.97
2023-04-10T06:51:51.922Z,8.98
2023-04-10T06:54:19.366Z,7.15
2023-04-10T06:56:46.891Z,6.63
2023-04-10T06:59:14.555Z,4.93
2023-04-10T07:01:42.072Z,5.72
2023-04-10T07:04:09.826Z,4.50
2023-04-10T07:06:37.494Z,4.85
2023-04-10T07:09:05.049Z,7.80
2023-04-10T07:11:32.508Z,4.78
2023-04-10T07:13:59.931Z,4.00
2023-04-10T07:16:27.749Z,4.30
2023-04-10T07:18:56.546Z,6.03
2023-04-10T07:21:24.301Z,6.72
2023-04-10T07:23:51.794Z,3.78
2023-04-10T07:26:19.289Z,3.13
2023-04-10T07:28:46.870Z,3.90
2023-04-10T07:31:14.421Z,4.85
2023-04-10T07:33:42.006Z,4.47
2023-04-10T07:36:09.563Z,4.28
2023-04-10T07:38:37.807Z,4.47
2023-04-10T07:41:05.780Z,3.25
2023-04-10T07:43:33.200Z,5.80
2023-04-10T07:46:00.794Z,3.38
2023-04-10T07:48:28.223Z,3.53
2023-04-10T07:50:57.619Z,2.97
2023-04-10T07:53:24.983Z,4.00
2023-04-10T07:55:53.564Z,3.55
2023-04-10T07:58:22.207Z,3.13
2023-04-10T08:00:49.608Z,3.97
2023-04-10T08:03:17.174Z,3.15
2023-04-10T08:05:44.734Z,5.03
2023-04-10T08:08:12.158Z,3.28
2023-04-10T08:10:39.549Z,3.55
2023-04-10T08:13:07.036Z,3.63
2023-04-10T08:15:34.468Z,5.28
2023-04-10T08:18:01.977Z,2.92
2023-04-10T08:20:36.838Z,3.75
2023-04-10T08:23:19.240Z,4.60
2023-04-10T08:25:48.052Z,5.82
2023-04-10T08:28:15.473Z,2.90
2023-04-10T08:30:42.893Z,3.55
2023-04-10T08:33:11.456Z,3.28
2023-04-10T08:35:38.859Z,4.00
2023-04-10T08:40:38.037Z,4.80
2023-04-10T08:43:05.603Z,9.00
2023-04-10T08:45:33.548Z,6.47
2023-04-10T08:48:05.519Z,3.97
2023-04-10T08:50:38.502Z,4.15
2023-04-10T08:53:11.336Z,5.28
2023-04-10T08:55:41.226Z,5.90
2023-04-10T08:58:09.130Z,4.32
2023-04-10T09:00:39.962Z,3.38
2023-04-10T09:03:15.066Z,3.88
2023-04-10T09:05:42.787Z,3.88
2023-04-10T09:08:13.687Z,4.75
2023-04-10T09:10:41.936Z,3.78
2023-04-10T09:13:09.407Z,4.90
2023-04-10T09:15:57.281Z,5.03
2023-04-10T09:18:47.962Z,5.90
2023-04-10T09:21:20.177Z,4.18
2023-04-10T09:23:48.757Z,4.25
2023-04-10T09:26:30.718Z,4.70
2023-04-10T09:29:07.436Z,9.77
2023-04-10T09:31:39.035Z,4.35
2023-04-10T09:34:22.351Z,6.30
2023-04-10T09:37:01.839Z,4.20
2023-04-10T09:39:43.867Z,13.90
2023-04-10T09:42:15.349Z,10.20
2023-04-10T09:44:44.760Z,13.70
2023-04-10T09:47:22.723Z,28.55
2023-04-10T09:49:56.645Z,5.20
2023-04-10T09:52:30.615Z,4.75
2023-04-10T09:55:03.597Z,5.15
2023-04-10T10:00:53.781Z,4.45
2023-04-10T10:03:22.959Z,5.88
2023-04-10T10:05:53.969Z,5.60
2023-04-10T10:08:23.416Z,4.82
2023-04-10T10:10:58.431Z,6.78
2023-04-10T10:13:43.327Z,5.53
2023-04-10T10:16:40.654Z,5.10
2023-04-10T10:19:40.232Z,7.15
2023-04-10T10:22:09.808Z,6.50
2023-04-10T10:24:40.107Z,5.28
2023-04-10T10:27:10.789Z,4.65
2023-04-10T10:29:39.642Z,4.20
2023-04-10T10:32:08.837Z,4.60
2023-04-10T10:34:36.733Z,5.18
2023-04-10T10:37:05.921Z,4.40
2023-04-10T10:39:45.019Z,4.95
2023-04-10T10:42:38.096Z,4.78
2023-04-10T10:45:12.927Z,5.15
2023-04-10T10:47:50.843Z,4.28
2023-04-10T10:50:18.332Z,10.52
2023-04-10T10:52:52.946Z,5.88
2023-04-10T10:55:27.432Z,6.55
2023-04-10T10:57:56.245Z,6.07
2023-04-10T11:00:25.837Z,8.25
2023-04-10T11:03:08.826Z,5.70
2023-04-10T11:05:55.583Z,6.20
2023-04-10T11:08:47.957Z,4.82
2023-04-10T11:11:23.558Z,5.32
2023-04-10T11:13:56.308Z,6.07
2023-04-10T11:16:34.186Z,5.38
2023-04-10T11:22:04.676Z,7.38
2023-04-10T11:24:58.305Z,6.15
2023-04-10T11:27:42.198Z,8.98
2023-04-10T11:30:30.917Z,5.80
2023-04-10T11:33:00.643Z,5.07
2023-04-10T11:35:28.937Z,5.95
2023-04-10T11:38:14.195Z,7.88
2023-04-10T11:40:58.484Z,5.57
2023-04-10T11:43:26.070Z,5.78
2023-04-10T11:46:09.107Z,5.50
2023-04-10T11:48:37.717Z,7.03
2023-04-10T11:51:13.353Z,7.53
2023-04-10T11:53:42.369Z,5.28
2023-04-10T11:56:30.107Z,5.38
2023-04-10T11:58:57.820Z,6.93
2023-04-10T12:01:25.411Z,4.50
2023-04-10T12:03:53.013Z,6.03
2023-04-10T12:06:20.999Z,5.50
2023-04-10T12:08:52.307Z,5.38
2023-04-10T12:11:22.482Z,5.38
2023-04-10T12:13:54.560Z,6.85
2023-04-10T12:16:22.631Z,5.72
2023-04-10T12:18:50.676Z,6.43
2023-04-10T12:21:18.262Z,6.88
2023-04-10T12:23:45.614Z,7.03
2023-04-10T12:26:14.342Z,6.05
2023-04-10T12:28:50.460Z,9.95
2023-04-10T12:31:17.973Z,6.65
2023-04-10T12:33:46.826Z,4.72
2023-04-10T12:36:22.153Z,5.47
2023-04-10T12:38:49.824Z,6.15
2023-04-10T12:41:25.679Z,6.18
2023-04-10T12:43:54.264Z,5.43
2023-04-10T12:46:29.357Z,5.03
2023-04-10T12:49:08.430Z,6.95
2023-04-10T12:51:50.013Z,6.78
2023-04-10T12:54:35.244Z,9.65
2023-04-10T12:57:06.235Z,8.10
2023-04-10T12:59:33.802Z,6.22
2023-04-10T13:02:01.473Z,8.18
2023-04-10T13:04:31.740Z,5.57
2023-04-10T13:06:59.156Z,5.00
2023-04-10T13:09:26.502Z,7.32
2023-04-10T13:11:53.871Z,6.10
2023-04-10T13:14:21.629Z,5.07
2023-04-10T13:16:49.130Z,6.18
2023-04-10T13:19:16.620Z,6.38
2023-04-10T13:21:44.038Z,4.72
2023-04-10T13:24:11.476Z,5.80
2023-04-10T13:26:38.839Z,5.07
2023-04-10T13:29:06.199Z,5.55
2023-04-10T13:31:33.663Z,4.93
2023-04-10T13:34:01.108Z,8.10
2023-04-10T13:36:28.613Z,6.18
2023-04-10T13:38:56.367Z,4.53
2023-04-10T13:41:24.017Z,5.35
2023-04-10T13:43:51.418Z,6.88
2023-04-10T13:46:18.850Z,5.72
2023-04-10T13:48:46.222Z,4.70
2023-04-10T13:51:13.552Z,4.18
2023-04-10T13:53:41.047Z,7.63
2023-04-10T13:56:09.143Z,5.03
2023-04-10T13:58:36.572Z,5.28
2023-04-10T14:01:04.209Z,4.05
2023-04-10T14:03:31.717Z,4.50
2023-04-10T14:05:59.134Z,5.53
2023-04-10T14:08:26.493Z,4.97
2023-04-10T14:10:54.305Z,5.22
2023-04-10T14:13:21.765Z,8.70
2023-04-10T14:15:51.992Z,3.97
2023-04-10T14:18:19.840Z,5.18
2023-04-10T14:20:48.169Z,4.72
2023-04-10T14:23:19.360Z,4.65
2023-04-10T14:25:47.315Z,5.15
2023-04-10T14:28:18.043Z,4.38
2023-04-10T14:30:46.518Z,4.00
2023-04-10T14:33:14.225Z,4.82
2023-04-10T14:35:42.037Z,5.80
2023-04-10T14:38:09.692Z,4.63
2023-04-10T14:40:37.367Z,4.25
2023-04-10T14:43:04.761Z,5.25
2023-04-10T14:45:32.815Z,6.40
2023-04-10T14:48:00.406Z,4.60
2023-04-10T14:50:28.070Z,4.72
2023-04-10T14:52:55.487Z,5.57
2023-04-10T14:55:22.876Z,4.90
2023-04-10T14:57:50.257Z,6.72
2023-04-10T15:00:17.861Z,4.63
2023-04-10T15:02:45.853Z,5.88
2023-04-10T15:05:13.406Z,4.05
2023-04-10T15:07:40.808Z,5.60
2023-04-10T15:10:10.611Z,5.78
2023-04-10T15:12:38.006Z,5.60
2023-04-10T15:15:06.495Z,3.75
2023-04-10T15:17:34.157Z,4.90
2023-04-10T15:20:01.846Z,4.75
2023-04-10T15:22:29.403Z,5.57
2023-04-10T15:24:56.966Z,5.15
2023-04-10T15:27:24.833Z,4.93
2023-04-10T15:29:52.191Z,3.85
2023-04-10T15:32:19.615Z,6.75
2023-04-10T15:34:47.070Z,6.03
2023-04-10T15:37:14.467Z,12.40
2023-04-10T15:39:42.154Z,9.80
2023-04-10T15:42:09.565Z,5.05
2023-04-10T15:44:36.931Z,4.38
2023-04-10T15:47:04.342Z,4.32
2023-04-10T15:49:38.004Z,4.88
2023-04-10T15:52:06.827Z,4.57
2023-04-10T15:54:34.928Z,5.88
2023-04-10T15:57:03.196Z,5.80
2023-04-10T15:59:30.722Z,5.28
2023-04-10T16:01:58.186Z,4.88
2023-04-10T16:04:25.761Z,7.35
2023-04-10T16:06:53.245Z,4.47
2023-04-10T16:11:51.315Z,4.40
2023-04-10T16:14:19.120Z,4.80
2023-04-10T16:16:47.521Z,4.93
2023-04-10T16:19:14.918Z,6.63
2023-04-10T16:21:42.900Z,4.85
2023-04-10T16:24:10.347Z,6.50
2023-04-10T16:26:37.742Z,5.30
2023-04-10T16:29:06.354Z,5.30
2023-04-10T16:31:33.823Z,5.10
2023-04-10T16:34:01.368Z,4.63
2023-04-10T16:36:28.769Z,4.47
2023-04-10T16:38:56.335Z,5.20
2023-04-10T16:41:24.167Z,5.05
2023-04-10T16:43:51.549Z,5.57
2023-04-10T16:46:19.080Z,5.97
2023-04-10T16:48:46.453Z,5.90
2023-04-10T16:51:17.806Z,6.00
2023-04-10T16:53:45.495Z,5.65
2023-04-10T16:56:13.008Z,7.25
2023-04-10T16:58:42.047Z,8.52
2023-04-10T17:01:26.352Z,4.18
2023-04-10T17:03:54.710Z,6.10
2023-04-10T17:06:22.419Z,4.95
2023-04-10T17:08:49.849Z,7.43
2023-04-10T17:11:17.257Z,3.97
2023-04-10T17:13:46.613Z,4.18
2023-04-10T17:16:14.445Z,5.55
2023-04-10T17:18:42.924Z,6.85
2023-04-10T17:21:13.822Z,8.43
2023-04-10T17:23:41.482Z,6.25
2023-04-10T17:26:14.337Z,7.40
2023-04-10T17:28:45.244Z,5.38
2023-04-10T17:31:13.749Z,5.60
2023-04-10T17:33:41.913Z,6.68
2023-04-10T17:36:12.160Z,6.97
2023-04-10T17:38:41.133Z,5.65
2023-04-10T17:41:09.810Z,7.25
2023-04-10T17:43:37.227Z,5.30
2023-04-10T17:46:04.855Z,4.20
2023-04-10T17:48:34.385Z,4.93
2023-04-10T17:51:07.081Z,6.85
2023-04-10T17:53:34.766Z,7.72
2023-04-10T17:56:03.192Z,10.45
2023-04-10T17:58:31.165Z,6.22
2023-04-10T18:00:58.555Z,4.78
2023-04-10T18:03:26.156Z,5.72
2023-04-10T18:05:53.788Z,6.07
2023-04-10T18:08:21.149Z,6.80
2023-04-10T18:10:48.651Z,6.32
2023-04-10T18:13:16.071Z,7.70
2023-04-10T18:15:43.507Z,6.20
2023-04-10T18:18:10.946Z,6.85
2023-04-10T18:20:39.342Z,7.03
2023-04-10T18:23:06.955Z,7.55
2023-04-10T18:25:35.009Z,7.05
2023-04-10T18:30:32.813Z,10.23
2023-04-10T18:33:00.324Z,9.32
2023-04-10T18:35:28.940Z,16.10
2023-04-10T18:37:57.652Z,12.20
2023-04-10T18:40:25.305Z,8.13
2023-04-10T18:42:52.707Z,8.77
2023-04-10T18:45:21.488Z,10.93
2023-04-10T18:47:48.906Z,10.40
2023-04-10T18:50:16.384Z,10.15
2023-04-10T18:52:43.750Z,11.82
2023-04-10T18:55:11.176Z,15.00
2023-04-10T18:57:38.891Z,12.98
2023-04-10T19:00:08.198Z,10.60
2023-04-10T19:02:35.842Z,9.60
2023-04-10T19:05:03.587Z,10.00
2023-04-10T19:07:32.644Z,10.48
2023-04-10T19:10:00.140Z,9.82
2023-04-10T19:12:27.550Z,16.13
2023-04-10T19:14:54.935Z,8.02
2023-04-10T19:17:24.839Z,9.15
2023-04-10T19:19:53.233Z,7.63
2023-04-10T19:22:21.509Z,11.73
2023-04-10T19:24:48.901Z,10.07
2023-04-10T19:27:16.387Z,12.68
2023-04-10T19:29:43.952Z,10.45
2023-04-10T19:32:11.360Z,10.65
2023-04-10T19:34:38.718Z,12.15
2023-04-10T19:37:06.134Z,10.77
2023-04-10T19:39:33.538Z,10.32
2023-04-10T19:42:01.967Z,10.98
2023-04-10T19:44:29.465Z,9.57
2023-04-10T19:46:56.948Z,14.40
2023-04-10T19:49:24.909Z,11.13
2023-04-10T19:51:52.805Z,8.05
2023-04-10T19:54:20.332Z,17.48
2023-04-10T19:56:47.680Z,18.80
2023-04-10T19:59:15.131Z,18.40
2023-04-10T20:01:42.734Z,18.67
2023-04-10T20:04:10.342Z,13.85
2023-04-10T20:06:37.888Z,11.95
2023-04-10T20:09:05.288Z,10.10
2023-04-10T20:11:32.808Z,15.30
2023-04-10T20:14:00.171Z,14.52
2023-04-10T20:16:27.565Z,17.08
2023-04-10T20:18:55.650Z,11.75
2023-04-10T20:21:23.283Z,13.38
2023-04-10T20:23:50.786Z,14.52
2023-04-10T20:26:18.170Z,16.17
2023-04-10T20:28:45.686Z,16.77
2023-04-10T20:31:13.269Z,11.20
2023-04-10T20:33:40.882Z,12.95
2023-04-10T20:36:08.673Z,13.52
2023-04-10T20:38:36.351Z,12.30
2023-04-10T20:41:03.750Z,15.55
2023-04-10T20:43:31.632Z,18.30
2023-04-10T20:46:07.586Z,15.63
2023-04-10T20:48:38.205Z,17.92
2023-04-10T20:51:05.990Z,17.83
2023-04-10T20:53:34.150Z,16.95
2023-04-10T20:56:02.976Z,13.20
2023-04-10T20:58:31.597Z,15.10
2023-04-10T21:00:59.045Z,18.48
2023-04-10T21:03:26.724Z,17.55
2023-04-10T21:05:54.273Z,14.70
2023-04-10T21:08:22.057Z,15.93
2023-04-10T21:10:49.518Z,19.52
2023-04-10T21:13:16.889Z,19.30
2023-04-10T21:15:44.700Z,11.75
2023-04-10T21:18:12.447Z,11.60
2023-04-10T21:20:39.861Z,12.80
2023-04-10T21:23:07.375Z,16.05
2023-04-10T21:25:38.646Z,12.38
2023-04-10T21:28:06.032Z,10.93
2023-04-10T21:30:33.385Z,12.98
2023-04-10T21:33:00.796Z,17.73
2023-04-10T21:35:28.246Z,12.65
2023-04-10T21:37:58.954Z,14.55
2023-04-10T21:40:33.983Z,11.80
2023-04-10T21:43:02.363Z,11.35
2023-04-10T21:45:30.822Z,14.77
2023-04-10T21:47:59.952Z,15.18
2023-04-10T21:50:27.458Z,14.20
2023-04-10T21:52:54.952Z,12.32
2023-04-10T21:55:22.421Z,16.55
2023-04-10T21:57:49.801Z,12.30
2023-04-10T22:00:17.511Z,22.55
2023-04-10T22:02:45.202Z,12.20
2023-04-10T22:05:14.108Z,14.25
2023-04-10T22:07:41.533Z,11.63
2023-04-10T22:10:09.313Z,13.10
2023-04-10T22:12:36.748Z,14.05
2023-04-10T22:15:04.707Z,12.98
2023-04-10T22:17:32.157Z,11.80
2023-04-10T22:19:59.667Z,14.45
2023-04-10T22:22:27.058Z,12.43
2023-04-10T22:24:54.431Z,12.63
2023-04-10T22:27:23.857Z,13.93
2023-04-10T22:30:02.166Z,12.13
2023-04-10T22:32:31.582Z,13.93
2023-04-10T22:34:59.895Z,15.00
2023-04-10T22:37:27.866Z,12.05
2023-04-10T22:39:58.370Z,14.00
2023-04-10T22:42:25.868Z,13.55
2023-04-10T22:44:53.478Z,15.20
2023-04-10T22:47:20.860Z,16.13
2023-04-10T22:49:48.206Z,15.80
2023-04-10T22:52:16.300Z,20.60
2023-04-10T22:54:43.714Z,19.45
2023-04-10T22:57:11.108Z,17.25
2023-04-10T22:59:38.696Z,15.75
2023-04-10T23:02:06.269Z,20.17
2023-04-10T23:04:33.920Z,17.95
2023-04-10T23:07:01.356Z,19.67
2023-04-10T23:09:28.824Z,19.60
2023-04-10T23:11:56.664Z,18.48
2023-04-10T23:14:24.013Z,18.50
2023-04-10T23:16:51.387Z,18.55
2023-04-10T23:19:19.049Z,20.35
2023-04-10T23:21:46.440Z,15.88
2023-04-10T23:24:13.797Z,15.82
2023-04-10T23:26:43.702Z,16.67
2023-04-10T23:29:11.100Z,19.58
2023-04-10T23:31:38.485Z,16.48
2023-04-10T23:34:05.961Z,17.50
2023-04-10T23:36:33.279Z,20.27
2023-04-10T23:39:00.652Z,15.20
2023-04-10T23:41:28.014Z,16.80
2023-04-10T23:43:55.888Z,14.77
2023-04-10T23:46:23.408Z,15.10
2023-04-10T23:48:51.026Z,16.20
2023-04-10T23:51:18.558Z,17.67
2023-04-10T23:53:48.776Z,18.75
2023-04-10T23:56:16.197Z,16.70
2023-04-10T23:58:43.556Z,17.95
